sensor_id;sensor_type;location;lat;lon;timestamp;pressure;altitude;pressure_sealevel;temperature;humidity
38912;BME280;28444;48.056;14.408;2023-05-15T00:00:57;96956.72;;;10.05;100.00
38912;BME280;28444;48.056;14.408;2023-05-15T00:03:44;96960.59;;;10.02;100.00
38912;BME280;28444;48.056;14.408;2023-05-15T00:06:31;96962.63;;;10.01;100.00
38912;BME280;28444;48.056;14.408;2023-05-15T00:09:18;96962.50;;;9.99;100.00
38912;BME280;28444;48.056;14.408;2023-05-15T00:12:05;96955.13;;;10.02;100.00
38912;BME280;28444;48.056;14.408;2023-05-15T00:14:53;96953.59;;;9.99;100.00
38912;BME280;28444;48.056;14.408;2023-05-15T00:17:40;96956.31;;;9.99;100.00
38912;BME280;28444;48.056;14.408;2023-05-15T00:20:26;96953.41;;;9.97;100.00
38912;BME280;28444;48.056;14.408;2023-05-15T00:23:13;96953.84;;;9.93;100.00
38912;BME280;28444;48.056;14.408;2023-05-15T00:26:00;96959.47;;;9.95;100.00
38912;BME280;28444;48.056;14.408;2023-05-15T00:28:47;96959.47;;;9.95;100.00
38912;BME280;28444;48.056;14.408;2023-05-15T00:31:34;96953.72;;;10.01;100.00
38912;BME280;28444;48.056;14.408;2023-05-15T00:34:21;96950.25;;;10.00;100.00
38912;BME280;28444;48.056;14.408;2023-05-15T00:37:08;96952.41;;;10.02;100.00
38912;BME280;28444;48.056;14.408;2023-05-15T00:39:55;96956.31;;;9.99;100.00
38912;BME280;28444;48.056;14.408;2023-05-15T00:42:43;96954.84;;;9.98;100.00
38912;BME280;28444;48.056;14.408;2023-05-15T00:45:31;96952.41;;;10.02;100.00
38912;BME280;28444;48.056;14.408;2023-05-15T00:48:19;96946.09;;;9.99;100.00
38912;BME280;28444;48.056;14.408;2023-05-15T00:51:08;96948.38;;;9.93;100.00
38912;BME280;28444;48.056;14.408;2023-05-15T00:53:57;96958.59;;;9.93;100.00
38912;BME280;28444;48.056;14.408;2023-05-15T00:56:44;96952.00;;;9.96;100.00
38912;BME280;28444;48.056;14.408;2023-05-15T00:59:33;96963.03;;;9.98;100.00
38912;BME280;28444;48.056;14.408;2023-05-15T01:02:20;96954.72;;;9.96;100.00
38912;BME280;28444;48.056;14.408;2023-05-15T01:05:07;96958.47;;;10.00;100.00
38912;BME280;28444;48.056;14.408;2023-05-15T01:08:06;96956.88;;;10.07;100.00
38912;BME280;28444;48.056;14.408;2023-05-15T01:10:54;96956.59;;;10.03;100.00
38912;BME280;28444;48.056;14.408;2023-05-15T01:13:41;96954.59;;;10.03;100.00
38912;BME280;28444;48.056;14.408;2023-05-15T01:16:28;96956.72;;;10.05;100.00
38912;BME280;28444;48.056;14.408;2023-05-15T01:19:15;96949.97;;;9.96;100.00
38912;BME280;28444;48.056;14.408;2023-05-15T01:22:20;96956.16;;;9.97;100.00
38912;BME280;28444;48.056;14.408;2023-05-15T01:25:50;96947.38;;;9.98;100.00
38912;BME280;28444;48.056;14.408;2023-05-15T01:28:47;96945.06;;;9.95;100.00
38912;BME280;28444;48.056;14.408;2023-05-15T01:31:37;96943.94;;;9.98;100.00
38912;BME280;28444;48.056;14.408;2023-05-15T01:34:35;96947.53;;;10.00;100.00
38912;BME280;28444;48.056;14.408;2023-05-15T01:37:27;96945.50;;;9.91;100.00
38912;BME280;28444;48.056;14.408;2023-05-15T01:40:17;96946.22;;;9.92;100.00
38912;BME280;28444;48.056;14.408;2023-05-15T01:43:08;96949.25;;;9.96;100.00
38912;BME280;28444;48.056;14.408;2023-05-15T01:45:57;96945.50;;;10.01;100.00
38912;BME280;28444;48.056;14.408;2023-05-15T01:48:45;96944.50;;;9.96;100.00
38912;BME280;28444;48.056;14.408;2023-05-15T01:51:35;96950.84;;;9.99;100.00
38912;BME280;28444;48.056;14.408;2023-05-15T01:54:23;96949.09;;;9.94;100.00
38912;BME280;28444;48.056;14.408;2023-05-15T01:57:10;96941.31;;;9.90;100.00
38912;BME280;28444;48.056;14.408;2023-05-15T02:00:00;96943.63;;;9.94;100.00
38912;BME280;28444;48.056;14.408;2023-05-15T02:02:48;96951.69;;;9.92;100.00
38912;BME280;28444;48.056;14.408;2023-05-15T02:05:36;96948.38;;;9.93;100.00
38912;BME280;28444;48.056;14.408;2023-05-15T02:08:25;96949.22;;;9.86;100.00
38912;BME280;28444;48.056;14.408;2023-05-15T02:11:14;96947.09;;;9.84;100.00
38912;BME280;28444;48.056;14.408;2023-05-15T02:14:03;96950.38;;;9.83;100.00
38912;BME280;28444;48.056;14.408;2023-05-15T02:16:50;96943.31;;;9.80;100.00
38912;BME280;28444;48.056;14.408;2023-05-15T02:19:38;96951.50;;;9.70;100.00
38912;BME280;28444;48.056;14.408;2023-05-15T02:22:25;96953.72;;;9.54;100.00
38912;BME280;28444;48.056;14.408;2023-05-15T02:25:11;96954.31;;;9.53;100.00
38912;BME280;28444;48.056;14.408;2023-05-15T02:27:59;96949.16;;;9.57;100.00
38912;BME280;28444;48.056;14.408;2023-05-15T02:30:56;96942.84;;;9.64;100.00
38912;BME280;28444;48.056;14.408;2023-05-15T02:36:40;96948.56;;;9.49;100.00
38912;BME280;28444;48.056;14.408;2023-05-15T02:39:28;96944.06;;;9.44;100.00
38912;BME280;28444;48.056;14.408;2023-05-15T02:42:16;96942.34;;;9.38;100.00
38912;BME280;28444;48.056;14.408;2023-05-15T02:45:04;96941.34;;;9.44;100.00
38912;BME280;28444;48.056;14.408;2023-05-15T02:47:53;96939.94;;;9.52;100.00
38912;BME280;28444;48.056;14.408;2023-05-15T02:50:42;96936.50;;;9.52;100.00
38912;BME280;28444;48.056;14.408;2023-05-15T02:53:29;96934.19;;;9.58;100.00
38912;BME280;28444;48.056;14.408;2023-05-15T02:56:16;96942.00;;;9.71;100.00
38912;BME280;28444;48.056;14.408;2023-05-15T02:59:03;96936.38;;;9.69;100.00
38912;BME280;28444;48.056;14.408;2023-05-15T03:01:50;96933.78;;;9.61;100.00
38912;BME280;28444;48.056;14.408;2023-05-15T03:04:37;96927.91;;;9.55;100.00
38912;BME280;28444;48.056;14.408;2023-05-15T03:07:24;96931.63;;;9.60;100.00
38912;BME280;28444;48.056;14.408;2023-05-15T03:10:12;96933.34;;;9.55;100.00
38912;BME280;28444;48.056;14.408;2023-05-15T03:12:59;96936.81;;;9.56;100.00
38912;BME280;28444;48.056;14.408;2023-05-15T03:15:46;96933.38;;;9.65;100.00
38912;BME280;28444;48.056;14.408;2023-05-15T03:18:33;96937.69;;;9.68;100.00
38912;BME280;28444;48.056;14.408;2023-05-15T03:21:21;96928.06;;;9.67;100.00
38912;BME280;28444;48.056;14.408;2023-05-15T03:24:08;96932.81;;;9.67;100.00
38912;BME280;28444;48.056;14.408;2023-05-15T03:26:55;96930.50;;;9.73;100.00
38912;BME280;28444;48.056;14.408;2023-05-15T03:29:42;96926.09;;;9.77;100.00
38912;BME280;28444;48.056;14.408;2023-05-15T03:32:29;96933.41;;;9.75;100.00
38912;BME280;28444;48.056;14.408;2023-05-15T03:35:16;96939.44;;;9.83;100.00
38912;BME280;28444;48.056;14.408;2023-05-15T03:38:03;96936.09;;;9.65;100.00
38912;BME280;28444;48.056;14.408;2023-05-15T03:40:49;96931.50;;;9.68;100.00
38912;BME280;28444;48.056;14.408;2023-05-15T03:43:36;96927.78;;;9.63;100.00
38912;BME280;28444;48.056;14.408;2023-05-15T03:46:23;96933.66;;;9.59;100.00
38912;BME280;28444;48.056;14.408;2023-05-15T03:49:10;96931.06;;;9.61;100.00
38912;BME280;28444;48.056;14.408;2023-05-15T03:51:57;96933.63;;;9.50;100.00
38912;BME280;28444;48.056;14.408;2023-05-15T03:54:44;96937.94;;;9.53;100.00
38912;BME280;28444;48.056;14.408;2023-05-15T03:57:31;96938.50;;;9.51;100.00
38912;BME280;28444;48.056;14.408;2023-05-15T04:00:19;96936.50;;;9.52;100.00
38912;BME280;28444;48.056;14.408;2023-05-15T04:03:05;96938.34;;;9.49;100.00
38912;BME280;28444;48.056;14.408;2023-05-15T04:05:52;96938.78;;;9.46;100.00
38912;BME280;28444;48.056;14.408;2023-05-15T04:08:39;96937.19;;;9.43;100.00
38912;BME280;28444;48.056;14.408;2023-05-15T04:11:27;96945.53;;;9.54;100.00
38912;BME280;28444;48.056;14.408;2023-05-15T04:14:14;96951.72;;;9.55;100.00
38912;BME280;28444;48.056;14.408;2023-05-15T04:17:01;96938.06;;;9.55;100.00
38912;BME280;28444;48.056;14.408;2023-05-15T04:19:48;96946.00;;;9.60;100.00
38912;BME280;28444;48.056;14.408;2023-05-15T04:22:36;96948.84;;;9.53;100.00
38912;BME280;28444;48.056;14.408;2023-05-15T04:25:25;96951.72;;;9.55;100.00
38912;BME280;28444;48.056;14.408;2023-05-15T04:28:14;96943.69;;;9.57;100.00
38912;BME280;28444;48.056;14.408;2023-05-15T04:31:01;96958.34;;;9.61;100.00
38912;BME280;28444;48.056;14.408;2023-05-15T04:33:48;96953.94;;;9.66;100.00
38912;BME280;28444;48.056;14.408;2023-05-15T04:36:37;96948.75;;;9.70;100.00
38912;BME280;28444;48.056;14.408;2023-05-15T04:39:26;96950.94;;;9.81;100.00
38912;BME280;28444;48.056;14.408;2023-05-15T04:42:13;96953.50;;;9.70;100.00
38912;BME280;28444;48.056;14.408;2023-05-15T04:45:00;96953.81;;;9.83;100.00
38912;BME280;28444;48.056;14.408;2023-05-15T04:47:48;96955.56;;;9.88;100.00
38912;BME280;28444;48.056;14.408;2023-05-15T04:50:34;96956.00;;;9.95;100.00
38912;BME280;28444;48.056;14.408;2023-05-15T04:53:22;96952.25;;;9.90;100.00
38912;BME280;28444;48.056;14.408;2023-05-15T04:56:09;96947.97;;;9.97;100.00
38912;BME280;28444;48.056;14.408;2023-05-15T04:58:56;96950.69;;;9.97;100.00
38912;BME280;28444;48.056;14.408;2023-05-15T05:01:43;96951.56;;;9.99;100.00
38912;BME280;28444;48.056;14.408;2023-05-15T05:04:30;96955.28;;;9.94;100.00
38912;BME280;28444;48.056;14.408;2023-05-15T05:07:17;96963.03;;;9.88;100.00
38912;BME280;28444;48.056;14.408;2023-05-15T05:10:05;96960.75;;;9.94;100.00
38912;BME280;28444;48.056;14.408;2023-05-15T05:12:52;96959.88;;;9.92;100.00
38912;BME280;28444;48.056;14.408;2023-05-15T05:15:39;96972.25;;;9.93;100.00
38912;BME280;28444;48.056;14.408;2023-05-15T05:18:26;96964.94;;;9.95;100.00
38912;BME280;28444;48.056;14.408;2023-05-15T05:21:13;96971.97;;;10.08;100.00
38912;BME280;28444;48.056;14.408;2023-05-15T05:24:00;96967.66;;;10.05;100.00
38912;BME280;28444;48.056;14.408;2023-05-15T05:26:47;96975.59;;;10.10;100.00
38912;BME280;28444;48.056;14.408;2023-05-15T05:29:34;96974.16;;;10.09;100.00
38912;BME280;28444;48.056;14.408;2023-05-15T05:32:21;96971.91;;;10.25;100.00
38912;BME280;28444;48.056;14.408;2023-05-15T05:35:08;96971.03;;;10.32;100.00
38912;BME280;28444;48.056;14.408;2023-05-15T05:37:55;96975.34;;;10.45;100.00
38912;BME280;28444;48.056;14.408;2023-05-15T05:40:41;96978.09;;;10.65;100.00
38912;BME280;28444;48.056;14.408;2023-05-15T05:43:29;96976.22;;;10.77;100.00
38912;BME280;28444;48.056;14.408;2023-05-15T05:46:15;96978.94;;;10.87;100.00
38912;BME280;28444;48.056;14.408;2023-05-15T05:49:02;96976.59;;;10.93;100.00
38912;BME280;28444;48.056;14.408;2023-05-15T05:51:49;96981.19;;;11.00;100.00
38912;BME280;28444;48.056;14.408;2023-05-15T05:54:36;96985.69;;;10.85;100.00
38912;BME280;28444;48.056;14.408;2023-05-15T05:57:23;96979.78;;;10.89;100.00
38912;BME280;28444;48.056;14.408;2023-05-15T06:00:10;96985.25;;;11.08;100.00
38912;BME280;28444;48.056;14.408;2023-05-15T06:02:58;96987.41;;;11.00;100.00
38912;BME280;28444;48.056;14.408;2023-05-15T06:05:45;96988.53;;;11.07;100.00
38912;BME280;28444;48.056;14.408;2023-05-15T06:08:33;96988.69;;;11.09;100.00
38912;BME280;28444;48.056;14.408;2023-05-15T06:11:20;96990.00;;;10.89;100.00
38912;BME280;28444;48.056;14.408;2023-05-15T06:14:10;96989.88;;;10.77;100.00
38912;BME280;28444;48.056;14.408;2023-05-15T06:16:57;96995.22;;;10.65;100.00
38912;BME280;28444;48.056;14.408;2023-05-15T06:19:44;96995.19;;;10.94;100.00
38912;BME280;28444;48.056;14.408;2023-05-15T06:22:31;97007.41;;;11.03;100.00
38912;BME280;28444;48.056;14.408;2023-05-15T06:25:18;97003.78;;;11.10;100.00
38912;BME280;28444;48.056;14.408;2023-05-15T06:28:05;97001.50;;;11.16;100.00
38912;BME280;28444;48.056;14.408;2023-05-15T06:30:52;97004.66;;;11.13;100.00
38912;BME280;28444;48.056;14.408;2023-05-15T06:33:39;97004.50;;;11.30;100.00
38912;BME280;28444;48.056;14.408;2023-05-15T06:36:26;97007.09;;;11.18;100.00
38912;BME280;28444;48.056;14.408;2023-05-15T06:39:13;97001.88;;;11.32;100.00
38912;BME280;28444;48.056;14.408;2023-05-15T06:41:59;97001.44;;;11.36;100.00
38912;BME280;28444;48.056;14.408;2023-05-15T06:44:47;97002.28;;;11.48;99.57
38912;BME280;28444;48.056;14.408;2023-05-15T06:47:35;97006.09;;;11.64;100.00
38912;BME280;28444;48.056;14.408;2023-05-15T06:50:22;96997.69;;;11.72;100.00
38912;BME280;28444;48.056;14.408;2023-05-15T06:53:09;97007.75;;;11.79;99.90
38912;BME280;28444;48.056;14.408;2023-05-15T06:55:57;97002.44;;;11.81;99.00
38912;BME280;28444;48.056;14.408;2023-05-15T06:58:44;97008.78;;;11.84;100.00
38912;BME280;28444;48.056;14.408;2023-05-15T07:01:31;97015.25;;;11.88;99.20
38912;BME280;28444;48.056;14.408;2023-05-15T07:04:18;97009.84;;;12.00;100.00
38912;BME280;28444;48.056;14.408;2023-05-15T07:07:05;97004.78;;;12.06;99.07
38912;BME280;28444;48.056;14.408;2023-05-15T07:09:52;97003.97;;;11.94;99.32
38912;BME280;28444;48.056;14.408;2023-05-15T07:12:39;97001.75;;;11.71;97.45
38912;BME280;28444;48.056;14.408;2023-05-15T07:15:26;97004.47;;;11.80;99.82
38912;BME280;28444;48.056;14.408;2023-05-15T07:18:13;97009.00;;;11.97;100.00
38912;BME280;28444;48.056;14.408;2023-05-15T07:21:00;97003.44;;;12.17;99.61
38912;BME280;28444;48.056;14.408;2023-05-15T07:23:47;97009.41;;;12.03;100.00
38912;BME280;28444;48.056;14.408;2023-05-15T07:26:34;97018.75;;;12.10;100.00
38912;BME280;28444;48.056;14.408;2023-05-15T07:29:32;97008.19;;;11.85;100.00
38912;BME280;28444;48.056;14.408;2023-05-15T07:32:19;97013.59;;;11.64;100.00
38912;BME280;28444;48.056;14.408;2023-05-15T07:35:06;97019.13;;;11.95;100.00
38912;BME280;28444;48.056;14.408;2023-05-15T07:37:53;97014.63;;;11.99;98.95
38912;BME280;28444;48.056;14.408;2023-05-15T07:40:40;97018.25;;;11.92;100.00
38912;BME280;28444;48.056;14.408;2023-05-15T07:43:27;97016.06;;;12.00;96.71
38912;BME280;28444;48.056;14.408;2023-05-15T07:46:17;97011.50;;;12.15;96.13
38912;BME280;28444;48.056;14.408;2023-05-15T07:49:04;97016.22;;;12.24;96.12
38912;BME280;28444;48.056;14.408;2023-05-15T07:51:51;97026.13;;;12.29;94.80
38912;BME280;28444;48.056;14.408;2023-05-15T07:54:39;97033.88;;;12.11;96.39
38912;BME280;28444;48.056;14.408;2023-05-15T07:57:27;97018.03;;;12.10;95.78
38912;BME280;28444;48.056;14.408;2023-05-15T08:00:14;97022.50;;;12.05;97.04
38912;BME280;28444;48.056;14.408;2023-05-15T08:03:01;97029.81;;;11.81;100.00
38912;BME280;28444;48.056;14.408;2023-05-15T08:05:49;97026.94;;;11.89;100.00
38912;BME280;28444;48.056;14.408;2023-05-15T08:08:35;97024.75;;;11.87;100.00
38912;BME280;28444;48.056;14.408;2023-05-15T08:11:22;97014.69;;;12.11;100.00
38912;BME280;28444;48.056;14.408;2023-05-15T08:14:09;97011.66;;;12.17;97.01
38912;BME280;28444;48.056;14.408;2023-05-15T08:16:59;97012.56;;;12.31;94.37
38912;BME280;28444;48.056;14.408;2023-05-15T08:19:46;97015.69;;;12.37;96.68
38912;BME280;28444;48.056;14.408;2023-05-15T08:22:34;97016.19;;;12.45;97.93
38912;BME280;28444;48.056;14.408;2023-05-15T08:25:21;97020.72;;;12.41;94.73
38912;BME280;28444;48.056;14.408;2023-05-15T08:28:08;97026.44;;;12.66;95.13
38912;BME280;28444;48.056;14.408;2023-05-15T08:30:56;97033.56;;;12.81;93.54
38912;BME280;28444;48.056;14.408;2023-05-15T08:33:43;97036.25;;;12.69;90.58
38912;BME280;28444;48.056;14.408;2023-05-15T08:36:30;97036.59;;;12.42;94.79
38912;BME280;28444;48.056;14.408;2023-05-15T08:39:17;97039.44;;;12.44;93.69
38912;BME280;28444;48.056;14.408;2023-05-15T08:42:13;97046.00;;;12.39;94.23
38912;BME280;28444;48.056;14.408;2023-05-15T08:45:00;97051.66;;;12.32;93.37
38912;BME280;28444;48.056;14.408;2023-05-15T08:47:48;97044.22;;;12.44;91.08
38912;BME280;28444;48.056;14.408;2023-05-15T08:50:37;97047.00;;;12.34;93.53
38912;BME280;28444;48.056;14.408;2023-05-15T08:53:24;97050.75;;;12.39;92.97
38912;BME280;28444;48.056;14.408;2023-05-15T08:56:12;97056.28;;;12.29;93.54
38912;BME280;28444;48.056;14.408;2023-05-15T08:58:59;97060.41;;;12.40;95.69
38912;BME280;28444;48.056;14.408;2023-05-15T09:01:46;97063.69;;;12.48;95.88
38912;BME280;28444;48.056;14.408;2023-05-15T09:04:33;97068.31;;;12.67;96.35
38912;BME280;28444;48.056;14.408;2023-05-15T09:07:20;97076.16;;;12.82;93.86
38912;BME280;28444;48.056;14.408;2023-05-15T09:10:08;97069.81;;;12.80;91.92
38912;BME280;28444;48.056;14.408;2023-05-15T09:12:56;97070.53;;;12.80;93.13
38912;BME280;28444;48.056;14.408;2023-05-15T09:15:45;97070.06;;;12.84;92.62
38912;BME280;28444;48.056;14.408;2023-05-15T09:18:37;97071.19;;;12.69;94.04
38912;BME280;28444;48.056;14.408;2023-05-15T09:21:29;97079.22;;;12.76;95.46
38912;BME280;28444;48.056;14.408;2023-05-15T09:24:24;97074.59;;;12.79;94.67
38912;BME280;28444;48.056;14.408;2023-05-15T09:27:12;97063.69;;;12.69;94.78
38912;BME280;28444;48.056;14.408;2023-05-15T09:30:07;97073.63;;;12.53;97.20
38912;BME280;28444;48.056;14.408;2023-05-15T09:32:55;97076.06;;;12.27;98.36
38912;BME280;28444;48.056;14.408;2023-05-15T09:35:42;97078.91;;;12.08;98.72
38912;BME280;28444;48.056;14.408;2023-05-15T09:38:41;97083.03;;;11.68;100.00
38912;BME280;28444;48.056;14.408;2023-05-15T09:41:28;97088.25;;;11.64;100.00
38912;BME280;28444;48.056;14.408;2023-05-15T09:44:25;97093.19;;;11.56;100.00
38912;BME280;28444;48.056;14.408;2023-05-15T09:47:13;97093.91;;;11.56;100.00
38912;BME280;28444;48.056;14.408;2023-05-15T09:50:00;97097.06;;;11.63;100.00
38912;BME280;28444;48.056;14.408;2023-05-15T09:52:47;97100.38;;;11.61;100.00
38912;BME280;28444;48.056;14.408;2023-05-15T09:55:34;97100.09;;;11.57;100.00
38912;BME280;28444;48.056;14.408;2023-05-15T09:58:21;97094.59;;;11.57;100.00
38912;BME280;28444;48.056;14.408;2023-05-15T10:01:09;97102.56;;;11.53;100.00
38912;BME280;28444;48.056;14.408;2023-05-15T10:04:01;97096.91;;;11.51;100.00
38912;BME280;28444;48.056;14.408;2023-05-15T10:06:48;97095.06;;;11.53;100.00
38912;BME280;28444;48.056;14.408;2023-05-15T10:09:35;97085.34;;;11.72;100.00
38912;BME280;28444;48.056;14.408;2023-05-15T10:12:23;97089.22;;;11.78;100.00
38912;BME280;28444;48.056;14.408;2023-05-15T10:15:10;97081.34;;;12.14;100.00
38912;BME280;28444;48.056;14.408;2023-05-15T10:17:58;97080.19;;;12.60;100.00
38912;BME280;28444;48.056;14.408;2023-05-15T10:20:46;97076.47;;;12.98;100.00
38912;BME280;28444;48.056;14.408;2023-05-15T10:23:35;97073.19;;;13.44;99.84
38912;BME280;28444;48.056;14.408;2023-05-15T10:26:28;97073.81;;;13.66;99.69
38912;BME280;28444;48.056;14.408;2023-05-15T10:29:17;97060.94;;;13.81;97.74
38912;BME280;28444;48.056;14.408;2023-05-15T10:32:07;97047.31;;;14.06;98.57
38912;BME280;28444;48.056;14.408;2023-05-15T10:34:54;97050.28;;;14.34;93.09
38912;BME280;28444;48.056;14.408;2023-05-15T10:37:46;97050.16;;;14.32;92.53
38912;BME280;28444;48.056;14.408;2023-05-15T10:40:36;97046.81;;;14.33;91.48
38912;BME280;28444;48.056;14.408;2023-05-15T10:43:24;97049.53;;;14.45;91.94
38912;BME280;28444;48.056;14.408;2023-05-15T10:46:12;97042.06;;;14.10;89.13
38912;BME280;28444;48.056;14.408;2023-05-15T10:48:59;97052.94;;;13.85;90.64
38912;BME280;28444;48.056;14.408;2023-05-15T10:51:48;97042.91;;;13.66;90.23
38912;BME280;28444;48.056;14.408;2023-05-15T10:54:35;97036.88;;;13.46;90.28
38912;BME280;28444;48.056;14.408;2023-05-15T10:57:22;97033.69;;;13.16;92.83
38912;BME280;28444;48.056;14.408;2023-05-15T11:03:12;97029.66;;;12.63;98.26
38912;BME280;28444;48.056;14.408;2023-05-15T11:06:10;97037.69;;;12.49;99.02
38912;BME280;28444;48.056;14.408;2023-05-15T11:12:13;97049.56;;;12.20;100.00
38912;BME280;28444;48.056;14.408;2023-05-15T11:18:06;97059.88;;;12.32;100.00
38912;BME280;28444;48.056;14.408;2023-05-15T11:23:46;97052.91;;;12.40;100.00
38912;BME280;28444;48.056;14.408;2023-05-15T11:26:32;97055.84;;;12.54;100.00
38912;BME280;28444;48.056;14.408;2023-05-15T11:29:19;97058.38;;;12.83;100.00
38912;BME280;28444;48.056;14.408;2023-05-15T11:38:16;97066.66;;;13.73;97.59
38912;BME280;28444;48.056;14.408;2023-05-15T11:41:17;97072.28;;;13.87;94.55
38912;BME280;28444;48.056;14.408;2023-05-15T11:44:04;97059.63;;;13.93;95.00
38912;BME280;28444;48.056;14.408;2023-05-15T11:46:51;97063.69;;;13.92;93.78
38912;BME280;28444;48.056;14.408;2023-05-15T11:49:39;97074.31;;;13.86;93.79
38912;BME280;28444;48.056;14.408;2023-05-15T11:52:26;97070.50;;;13.91;94.41
38912;BME280;28444;48.056;14.408;2023-05-15T11:55:17;97067.72;;;13.80;93.00
38912;BME280;28444;48.056;14.408;2023-05-15T11:58:10;97068.94;;;13.77;94.17
38912;BME280;28444;48.056;14.408;2023-05-15T12:00:58;97065.09;;;13.58;95.62
38912;BME280;28444;48.056;14.408;2023-05-15T12:03:48;97063.84;;;13.38;91.05
38912;BME280;28444;48.056;14.408;2023-05-15T12:06:35;97058.78;;;13.22;92.18
38912;BME280;28444;48.056;14.408;2023-05-15T12:09:22;97060.41;;;13.16;92.72
38912;BME280;28444;48.056;14.408;2023-05-15T12:12:13;97063.75;;;13.14;91.95
38912;BME280;28444;48.056;14.408;2023-05-15T12:15:00;97066.50;;;13.14;90.53
38912;BME280;28444;48.056;14.408;2023-05-15T12:17:47;97059.00;;;13.15;90.95
38912;BME280;28444;48.056;14.408;2023-05-15T12:20:35;97066.09;;;13.30;92.32
38912;BME280;28444;48.056;14.408;2023-05-15T12:23:24;97067.06;;;13.34;92.10
38912;BME280;28444;48.056;14.408;2023-05-15T12:26:12;97069.09;;;13.34;94.17
38912;BME280;28444;48.056;14.408;2023-05-15T12:28:59;97071.06;;;13.55;93.57
38912;BME280;28444;48.056;14.408;2023-05-15T12:31:46;97072.50;;;13.56;91.31
38912;BME280;28444;48.056;14.408;2023-05-15T12:34:33;97081.34;;;13.66;91.33
38912;BME280;28444;48.056;14.408;2023-05-15T12:37:20;97083.84;;;13.62;89.38
38912;BME280;28444;48.056;14.408;2023-05-15T12:40:07;97087.09;;;13.70;89.97
38912;BME280;28444;48.056;14.408;2023-05-15T12:42:57;97080.88;;;13.81;90.27
38912;BME280;28444;48.056;14.408;2023-05-15T12:45:45;97083.28;;;13.87;89.79
38912;BME280;28444;48.056;14.408;2023-05-15T12:48:32;97080.56;;;13.99;88.73
38912;BME280;28444;48.056;14.408;2023-05-15T12:51:21;97076.97;;;13.96;88.39
38912;BME280;28444;48.056;14.408;2023-05-15T12:54:16;97086.03;;;14.10;88.49
38912;BME280;28444;48.056;14.408;2023-05-15T12:57:04;97070.38;;;14.25;87.03
38912;BME280;28444;48.056;14.408;2023-05-15T12:59:51;97063.75;;;14.41;86.98
38912;BME280;28444;48.056;14.408;2023-05-15T13:02:38;97062.88;;;14.74;85.51
38912;BME280;28444;48.056;14.408;2023-05-15T13:05:25;97052.31;;;14.94;85.80
38912;BME280;28444;48.056;14.408;2023-05-15T13:08:15;97040.56;;;14.93;84.46
38912;BME280;28444;48.056;14.408;2023-05-15T13:11:03;97039.16;;;15.18;85.23
38912;BME280;28444;48.056;14.408;2023-05-15T13:13:51;97046.19;;;15.21;84.88
38912;BME280;28444;48.056;14.408;2023-05-15T13:16:41;97045.25;;;15.16;84.66
38912;BME280;28444;48.056;14.408;2023-05-15T13:19:28;97040.22;;;14.87;84.40
38912;BME280;28444;48.056;14.408;2023-05-15T13:22:16;97045.25;;;14.91;83.33
38912;BME280;28444;48.056;14.408;2023-05-15T13:25:03;97043.28;;;15.05;83.15
38912;BME280;28444;48.056;14.408;2023-05-15T13:27:54;97041.50;;;15.24;82.87
38912;BME280;28444;48.056;14.408;2023-05-15T13:30:41;97034.56;;;15.23;83.10
38912;BME280;28444;48.056;14.408;2023-05-15T13:33:31;97031.53;;;15.30;82.48
38912;BME280;28444;48.056;14.408;2023-05-15T13:36:19;97035.34;;;15.37;83.02
38912;BME280;28444;48.056;14.408;2023-05-15T13:39:06;97037.66;;;15.29;82.33
38912;BME280;28444;48.056;14.408;2023-05-15T13:41:53;97044.16;;;15.22;81.58
38912;BME280;28444;48.056;14.408;2023-05-15T13:44:40;97039.09;;;15.30;82.71
38912;BME280;28444;48.056;14.408;2023-05-15T13:47:27;97037.38;;;15.36;83.97
38912;BME280;28444;48.056;14.408;2023-05-15T13:50:14;97038.41;;;15.43;81.98
38912;BME280;28444;48.056;14.408;2023-05-15T13:53:01;97036.41;;;15.57;79.65
38912;BME280;28444;48.056;14.408;2023-05-15T13:55:48;97040.34;;;15.40;79.31
38912;BME280;28444;48.056;14.408;2023-05-15T13:58:35;97034.94;;;15.43;78.18
38912;BME280;28444;48.056;14.408;2023-05-15T14:01:23;97032.16;;;15.68;77.48
38912;BME280;28444;48.056;14.408;2023-05-15T14:04:10;97031.88;;;15.89;78.15
38912;BME280;28444;48.056;14.408;2023-05-15T14:06:57;97028.31;;;16.28;77.41
38912;BME280;28444;48.056;14.408;2023-05-15T14:09:44;97018.69;;;16.16;75.07
38912;BME280;28444;48.056;14.408;2023-05-15T14:12:30;97011.56;;;16.10;76.14
38912;BME280;28444;48.056;14.408;2023-05-15T14:15:18;97012.19;;;16.09;75.23
38912;BME280;28444;48.056;14.408;2023-05-15T14:18:05;97002.91;;;16.16;77.49
38912;BME280;28444;48.056;14.408;2023-05-15T14:20:52;97001.03;;;16.07;75.13
38912;BME280;28444;48.056;14.408;2023-05-15T14:23:39;96989.41;;;16.08;75.35
38912;BME280;28444;48.056;14.408;2023-05-15T14:26:26;96994.81;;;16.34;75.52
38912;BME280;28444;48.056;14.408;2023-05-15T14:29:13;97001.75;;;16.35;75.51
38912;BME280;28444;48.056;14.408;2023-05-15T14:32:00;96997.94;;;16.42;76.50
38912;BME280;28444;48.056;14.408;2023-05-15T14:34:47;96993.22;;;16.45;74.35
38912;BME280;28444;48.056;14.408;2023-05-15T14:37:35;96996.63;;;16.43;74.63
38912;BME280;28444;48.056;14.408;2023-05-15T14:40:22;96998.09;;;16.17;73.27
38912;BME280;28444;48.056;14.408;2023-05-15T14:43:09;96996.16;;;16.05;74.30
38912;BME280;28444;48.056;14.408;2023-05-15T14:45:56;96989.31;;;16.06;75.05
38912;BME280;28444;48.056;14.408;2023-05-15T14:48:43;96975.72;;;16.10;73.24
38912;BME280;28444;48.056;14.408;2023-05-15T14:51:30;96976.09;;;16.19;73.43
38912;BME280;28444;48.056;14.408;2023-05-15T14:54:17;96984.19;;;16.28;74.30
38912;BME280;28444;48.056;14.408;2023-05-15T14:57:05;96990.25;;;16.54;70.78